Time;durP1;ratioP1;P1;durP2;ratioP2;P2;SDS_P1;SDS_P2;PMS_P1;PMS_P2;Temp;Humidity;BMP_temperature;BMP_pressure;BME280_temperature;BME280_humidity;BME280_pressure;Samples;Min_cycle;Max_cycle;Signal;HPM_P1;HPM_P2
2022/11/30 00:01:25;;;;;;;36.03;22.40;;;10.60;99.90;;;;;;5049587;28;20161;-77
2022/11/30 00:03:56;;;;;;;34.10;20.58;;;10.60;99.90;;;;;;5047729;28;20630;-77
2022/11/30 00:06:24;;;;;;;32.33;21.80;;;10.60;99.90;;;;;;5048166;28;20220;-76
2022/11/30 00:08:56;;;;;;;31.65;20.27;;;10.60;99.90;;;;;;5030906;28;20231;-77
2022/11/30 00:11:24;;;;;;;40.95;23.75;;;10.60;99.90;;;;;;5048877;28;20185;-77
2022/11/30 00:13:49;;;;;;;30.13;18.30;;;10.60;99.90;;;;;;5031213;28;20161;-77
2022/11/30 00:16:15;;;;;;;38.27;21.20;;;10.60;99.90;;;;;;5049021;28;20191;-77
2022/11/30 00:18:41;;;;;;;35.53;21.87;;;10.60;99.90;;;;;;5047138;28;20593;-77
2022/11/30 00:21:11;;;;;;;31.95;21.90;;;10.60;99.90;;;;;;5047820;28;20169;-77
2022/11/30 00:23:39;;;;;;;40.75;24.95;;;10.60;99.90;;;;;;5049649;28;20271;-77
2022/11/30 00:26:08;;;;;;;40.53;23.58;;;10.60;99.90;;;;;;5049811;28;20288;-77
2022/11/30 00:28:35;;;;;;;33.50;21.02;;;10.50;99.90;;;;;;5052569;28;20180;-77
2022/11/30 00:31:06;;;;;;;36.78;22.45;;;10.50;99.90;;;;;;5049053;28;20169;-76
2022/11/30 00:33:34;;;;;;;42.08;23.90;;;10.50;99.90;;;;;;5047981;28;20197;-77
2022/11/30 00:36:21;;;;;;;40.78;23.90;;;10.50;99.90;;;;;;5049750;28;20196;-77
2022/11/30 00:38:48;;;;;;;35.17;24.55;;;10.40;99.90;;;;;;5050738;28;20165;-75
2022/11/30 00:41:14;;;;;;;45.67;25.65;;;10.40;99.90;;;;;;5050892;28;20157;-76
2022/11/30 00:43:40;;;;;;;40.65;24.17;;;10.40;99.90;;;;;;5051419;28;20169;-76
2022/11/30 00:46:10;;;;;;;39.90;24.35;;;10.40;99.90;;;;;;5050410;28;20191;-76
2022/11/30 00:48:37;;;;;;;47.17;26.10;;;10.40;99.90;;;;;;5050812;28;20728;-75
2022/11/30 00:51:04;;;;;;;39.50;25.00;;;10.30;99.90;;;;;;5050936;28;20246;-76
2022/11/30 00:53:30;;;;;;;38.83;24.15;;;10.30;99.90;;;;;;5051564;28;20204;-76
2022/11/30 00:55:56;;;;;;;44.47;25.47;;;10.30;99.90;;;;;;5051197;28;20533;-77
2022/11/30 00:58:22;;;;;;;37.40;23.37;;;10.30;99.90;;;;;;5051042;28;20181;-76
2022/11/30 01:00:48;;;;;;;40.22;23.25;;;10.30;99.90;;;;;;5033557;28;20170;-76
2022/11/30 01:03:14;;;;;;;42.17;24.50;;;10.30;99.90;;;;;;5066694;28;20234;-76
2022/11/30 01:05:42;;;;;;;43.95;24.95;;;10.30;99.90;;;;;;5051871;28;20560;-75
2022/11/30 01:08:09;;;;;;;49.10;25.42;;;10.30;99.90;;;;;;5049937;28;20644;-76
2022/11/30 01:10:36;;;;;;;47.47;26.25;;;10.30;99.90;;;;;;5049289;28;20161;-77
2022/11/30 01:13:02;;;;;;;46.97;26.02;;;10.30;99.90;;;;;;5048532;28;20223;-77
2022/11/30 01:15:29;;;;;;;37.40;23.77;;;10.40;99.90;;;;;;5047506;28;20164;-77
2022/11/30 01:17:55;;;;;;;38.28;23.58;;;10.40;99.90;;;;;;5046513;28;21221;-76
2022/11/30 01:20:21;;;;;;;51.45;26.45;;;10.40;99.90;;;;;;5051162;28;20161;-77
2022/11/30 01:22:46;;;;;;;55.50;26.20;;;10.40;99.90;;;;;;5034320;28;20696;-77
2022/11/30 01:25:12;;;;;;;47.47;26.77;;;10.40;99.90;;;;;;5067674;28;20678;-76
2022/11/30 01:27:39;;;;;;;44.92;24.92;;;10.40;99.90;;;;;;5051703;28;20224;-78
2022/11/30 01:30:06;;;;;;;48.20;26.73;;;10.40;99.90;;;;;;5044034;28;20204;-77
2022/11/30 01:32:31;;;;;;;49.88;29.65;;;10.40;99.90;;;;;;5043187;28;20672;-76
2022/11/30 01:34:57;;;;;;;44.83;23.60;;;10.40;99.90;;;;;;5050612;28;20173;-76
2022/11/30 01:37:23;;;;;;;43.70;25.20;;;10.40;99.90;;;;;;5050302;28;20213;-76
2022/11/30 01:39:49;;;;;;;47.90;25.70;;;10.30;99.90;;;;;;5052589;28;20248;-76
2022/11/30 01:42:16;;;;;;;47.57;26.30;;;10.40;99.90;;;;;;5067683;28;20181;-76
2022/11/30 01:44:50;;;;;;;46.35;27.08;;;10.40;99.90;;;;;;5054477;28;20180;-76
2022/11/30 01:47:19;;;;;;;43.92;24.10;;;10.30;99.90;;;;;;5050312;28;20188;-76
2022/11/30 01:49:56;;;;;;;53.63;27.17;;;10.30;99.90;;;;;;5052220;28;20246;-77
2022/11/30 01:52:35;;;;;;;44.88;24.58;;;10.30;99.90;;;;;;5050236;28;20228;-77
2022/11/30 01:55:30;;;;;;;41.15;23.83;;;10.30;99.90;;;;;;5051959;28;20161;-76
2022/11/30 01:58:05;;;;;;;46.92;25.20;;;10.30;99.90;;;;;;5033339;28;20288;-76
2022/11/30 02:00:31;;;;;;;47.90;24.80;;;10.30;99.90;;;;;;5050510;28;20199;-77
2022/11/30 02:03:09;;;;;;;40.92;24.08;;;10.30;99.90;;;;;;5049821;28;20265;-77
2022/11/30 02:05:37;;;;;;;43.22;24.67;;;10.30;99.90;;;;;;5051742;28;20161;-77
2022/11/30 02:08:04;;;;;;;40.05;24.70;;;10.30;99.90;;;;;;5049662;28;20191;-77
2022/11/30 02:10:33;;;;;;;51.70;25.40;;;10.30;99.90;;;;;;5050150;28;20203;-77
2022/11/30 02:13:17;;;;;;;52.63;26.77;;;10.30;99.90;;;;;;5049852;28;20299;-77
2022/11/30 02:16:07;;;;;;;47.17;24.80;;;10.30;99.90;;;;;;5051249;28;20161;-77
2022/11/30 02:18:54;;;;;;;40.35;24.83;;;10.30;99.90;;;;;;5051131;28;20566;-77
2022/11/30 02:21:26;;;;;;;44.10;24.13;;;10.30;99.90;;;;;;5034847;28;20222;-77
2022/11/30 02:24:34;;;;;;;51.75;25.77;;;10.30;99.90;;;;;;5050081;28;20176;-77
2022/11/30 02:27:09;;;;;;;41.72;23.58;;;10.30;99.90;;;;;;5049466;28;20238;-77
2022/11/30 02:30:00;;;;;;;45.03;25.70;;;10.40;99.90;;;;;;5051235;28;20222;-77
2022/11/30 02:32:38;;;;;;;47.67;25.92;;;10.40;99.90;;;;;;5049739;28;20196;-77
2022/11/30 02:35:06;;;;;;;43.97;24.10;;;10.30;99.90;;;;;;5051022;28;20161;-78
2022/11/30 02:37:34;;;;;;;43.72;24.38;;;10.30;99.90;;;;;;5049216;28;20232;-78
2022/11/30 02:40:00;;;;;;;43.30;22.45;;;10.40;99.90;;;;;;5050732;28;20262;-77
2022/11/30 02:42:26;;;;;;;40.60;22.67;;;10.30;99.90;;;;;;5032911;28;20227;-77
2022/11/30 02:44:53;;;;;;;41.40;23.30;;;10.30;99.90;;;;;;5050675;28;20528;-77
2022/11/30 02:47:21;;;;;;;49.60;24.25;;;10.40;99.90;;;;;;5049024;28;20224;-78
2022/11/30 02:50:23;;;;;;;44.00;24.67;;;10.30;99.90;;;;;;5049335;28;20223;-77
2022/11/30 02:52:50;;;;;;;41.08;21.85;;;10.30;99.90;;;;;;5028105;28;20216;-77
2022/11/30 02:55:18;;;;;;;43.97;22.50;;;10.40;99.90;;;;;;5049468;28;20243;-77
2022/11/30 02:57:44;;;;;;;43.63;21.80;;;10.40;99.90;;;;;;5049932;28;20595;-77
2022/11/30 03:00:12;;;;;;;48.03;22.70;;;10.40;99.90;;;;;;5049555;28;20173;-77
2022/11/30 03:02:38;;;;;;;44.70;24.17;;;10.30;99.90;;;;;;5050478;28;20641;-78
2022/11/30 03:05:05;;;;;;;39.20;20.42;;;10.40;99.90;;;;;;5050520;28;20161;-78
2022/11/30 03:07:31;;;;;;;39.17;22.02;;;10.40;99.90;;;;;;5049857;28;20220;-78
2022/11/30 03:09:57;;;;;;;39.47;21.40;;;10.40;99.90;;;;;;5050689;28;20205;-78
2022/11/30 03:12:23;;;;;;;42.55;22.60;;;10.40;99.90;;;;;;5048844;28;20197;-77
2022/11/30 03:14:49;;;;;;;48.47;22.93;;;10.30;99.90;;;;;;5050585;28;20167;-77
2022/11/30 03:17:14;;;;;;;39.57;20.43;;;10.40;99.90;;;;;;5048369;28;20603;-77
2022/11/30 03:19:40;;;;;;;40.20;20.90;;;10.40;99.90;;;;;;5050166;28;20161;-77
2022/11/30 03:22:06;;;;;;;38.13;20.50;;;10.40;99.90;;;;;;5050056;28;20169;-77
2022/11/30 03:24:32;;;;;;;42.50;21.57;;;10.40;99.90;;;;;;5048884;28;20614;-76
2022/11/30 03:26:58;;;;;;;44.37;24.17;;;10.40;99.90;;;;;;5032115;28;20607;-77
2022/11/30 03:29:23;;;;;;;41.33;22.13;;;10.40;99.90;;;;;;5050486;28;20192;-76
2022/11/30 03:31:49;;;;;;;44.53;22.00;;;10.40;99.90;;;;;;5049965;28;20544;-76
2022/11/30 03:34:15;;;;;;;43.90;22.80;;;10.40;99.90;;;;;;5065759;28;20161;-76
2022/11/30 03:36:41;;;;;;;37.90;20.85;;;10.40;99.90;;;;;;5051853;28;20204;-77
2022/11/30 03:39:08;;;;;;;33.40;19.80;;;10.40;99.90;;;;;;5049656;28;20182;-77
2022/11/30 03:41:34;;;;;;;38.08;19.70;;;10.40;99.90;;;;;;5048852;28;20263;-77
2022/11/30 03:43:59;;;;;;;38.33;22.97;;;10.40;99.90;;;;;;5049758;28;20204;-77
2022/11/30 03:46:26;;;;;;;42.50;21.60;;;10.40;99.90;;;;;;5048582;28;20200;-77
2022/11/30 03:48:53;;;;;;;40.58;21.77;;;10.50;99.90;;;;;;5049638;28;20158;-77
2022/11/30 03:51:18;;;;;;;39.17;22.30;;;10.50;99.90;;;;;;5032189;28;20175;-77
2022/11/30 03:53:44;;;;;;;46.20;25.80;;;10.50;99.90;;;;;;5048522;28;20192;-77
2022/11/30 03:56:11;;;;;;;49.90;24.60;;;10.50;99.90;;;;;;5049662;28;20188;-77
2022/11/30 03:58:37;;;;;;;42.58;20.85;;;10.50;99.90;;;;;;5047937;28;20592;-77
2022/11/30 04:01:09;;;;;;;43.87;21.53;;;10.50;99.90;;;;;;5049426;28;20192;-77
2022/11/30 04:03:35;;;;;;;47.70;24.40;;;10.50;99.90;;;;;;5050089;28;21018;-77
2022/11/30 04:06:02;;;;;;;44.22;23.00;;;10.50;99.90;;;;;;5048485;28;20288;-77
2022/11/30 04:08:28;;;;;;;45.40;24.88;;;10.50;99.90;;;;;;5048010;28;20635;-77
2022/11/30 04:10:55;;;;;;;47.95;25.33;;;10.50;99.90;;;;;;5049173;28;20184;-76
2022/11/30 04:13:22;;;;;;;48.22;22.73;;;10.60;99.90;;;;;;5049698;28;20703;-77
2022/11/30 04:15:49;;;;;;;55.08;26.40;;;10.60;99.90;;;;;;5049876;28;20170;-77
2022/11/30 04:18:15;;;;;;;44.28;24.52;;;10.60;99.90;;;;;;5047629;28;20211;-77
2022/11/30 04:20:41;;;;;;;49.10;25.52;;;10.60;99.90;;;;;;5031803;28;20165;-77
2022/11/30 04:23:08;;;;;;;49.77;25.50;;;10.60;99.90;;;;;;5049080;28;20169;-77
2022/11/30 04:25:39;;;;;;;52.95;26.35;;;10.60;99.90;;;;;;5049485;28;20567;-77
2022/11/30 04:28:05;;;;;;;44.38;23.98;;;10.60;99.90;;;;;;5047576;28;20523;-77
2022/11/30 04:30:32;;;;;;;48.15;25.35;;;10.60;99.90;;;;;;5031861;28;20183;-77
2022/11/30 04:32:58;;;;;;;46.63;23.52;;;10.60;99.90;;;;;;5049131;28;20200;-77
2022/11/30 04:35:23;;;;;;;50.47;24.77;;;10.60;99.90;;;;;;5031540;28;20617;-76
2022/11/30 04:37:49;;;;;;;42.97;25.10;;;10.60;99.90;;;;;;5047477;28;20204;-76
2022/11/30 04:40:15;;;;;;;43.10;24.03;;;10.60;99.90;;;;;;5049024;28;20264;-76
2022/11/30 04:42:41;;;;;;;52.07;24.53;;;10.60;99.90;;;;;;5049207;28;20177;-76
2022/11/30 04:45:07;;;;;;;45.47;24.10;;;10.60;99.90;;;;;;5047785;28;20177;-76
2022/11/30 04:47:33;;;;;;;47.50;23.70;;;10.50;99.90;;;;;;5049477;28;20193;-77
2022/11/30 04:49:58;;;;;;;50.43;24.10;;;10.50;99.90;;;;;;5032108;28;20177;-78
2022/11/30 04:52:24;;;;;;;39.20;21.47;;;10.50;99.90;;;;;;5049016;28;20254;-78
2022/11/30 04:54:51;;;;;;;43.92;23.95;;;10.50;99.90;;;;;;5066357;28;20169;-78
2022/11/30 04:57:17;;;;;;;43.58;22.85;;;10.50;99.90;;;;;;5052650;28;20181;-78
2022/11/30 04:59:42;;;;;;;45.73;24.60;;;10.50;99.90;;;;;;5053259;28;20694;-77
2022/11/30 05:02:08;;;;;;;46.03;25.53;;;10.50;99.90;;;;;;5034881;28;20581;-77
2022/11/30 05:04:34;;;;;;;42.90;24.17;;;10.50;99.90;;;;;;5033400;28;20173;-77
2022/11/30 05:07:00;;;;;;;38.90;23.17;;;10.50;99.90;;;;;;5031955;28;20185;-75
2022/11/30 05:09:26;;;;;;;36.90;21.00;;;10.50;99.90;;;;;;5031554;28;20599;-76
2022/11/30 05:11:52;;;;;;;34.70;21.00;;;10.50;99.90;;;;;;5030779;28;20308;-76
2022/11/30 05:14:17;;;;;;;41.33;23.53;;;10.50;99.90;;;;;;5031645;28;21147;-77
2022/11/30 05:16:46;;;;;;;39.63;22.07;;;10.50;99.90;;;;;;5032748;28;20209;-77
2022/11/30 05:19:13;;;;;;;36.78;22.30;;;10.50;99.90;;;;;;5031040;28;20165;-77
2022/11/30 05:21:40;;;;;;;33.85;20.83;;;10.50;99.90;;;;;;5030465;28;20185;-77
2022/11/30 05:24:06;;;;;;;43.67;25.52;;;10.50;99.90;;;;;;5032667;28;20189;-77
2022/11/30 05:26:32;;;;;;;37.42;22.35;;;10.60;99.90;;;;;;5018747;28;20528;-78
2022/11/30 05:28:57;;;;;;;35.90;23.47;;;10.50;99.90;;;;;;5031197;28;20161;-77
2022/11/30 05:31:23;;;;;;;38.60;22.37;;;10.50;99.90;;;;;;5032489;28;20252;-77
2022/11/30 05:33:51;;;;;;;42.27;26.60;;;10.50;99.90;;;;;;5014664;28;20618;-78
2022/11/30 05:36:17;;;;;;;40.63;26.63;;;10.50;99.90;;;;;;5032670;28;20604;-77
2022/11/30 05:38:43;;;;;;;39.35;22.55;;;10.50;99.90;;;;;;5039630;28;20201;-78
2022/11/30 05:41:09;;;;;;;39.20;24.40;;;10.50;99.90;;;;;;5038227;28;20178;-77
2022/11/30 05:43:35;;;;;;;45.67;27.47;;;10.50;99.90;;;;;;5033002;28;20604;-78
2022/11/30 05:46:02;;;;;;;44.67;26.97;;;10.40;99.90;;;;;;5054966;22;20662;-76
2022/11/30 05:48:28;;;;;;;40.72;25.92;;;10.50;99.90;;;;;;5044841;28;20712;-76
2022/11/30 05:50:54;;;;;;;39.47;24.87;;;10.40;99.90;;;;;;5045352;28;20196;-77
2022/11/30 05:53:20;;;;;;;40.50;24.90;;;10.40;99.90;;;;;;5050684;28;20247;-76
2022/11/30 05:55:45;;;;;;;46.20;25.93;;;10.30;99.90;;;;;;5050303;28;20606;-76
2022/11/30 05:58:11;;;;;;;39.23;26.13;;;10.30;99.90;;;;;;5051167;28;20556;-76
2022/11/30 06:00:37;;;;;;;41.77;25.80;;;10.30;99.90;;;;;;5050180;28;20173;-76
2022/11/30 06:03:03;;;;;;;46.87;27.30;;;10.30;99.90;;;;;;5051026;28;20559;-76
2022/11/30 06:05:28;;;;;;;41.47;27.23;;;10.30;99.90;;;;;;5049985;28;20923;-76
2022/11/30 06:07:57;;;;;;;46.27;28.30;;;10.30;99.90;;;;;;5050792;28;20161;-76
2022/11/30 06:10:24;;;;;;;51.50;31.27;;;10.30;99.90;;;;;;5051096;28;20207;-76
2022/11/30 06:12:50;;;;;;;44.33;26.15;;;10.30;99.90;;;;;;5051615;28;20564;-76
2022/11/30 06:15:16;;;;;;;40.37;25.60;;;10.30;99.90;;;;;;5047659;28;20192;-76
2022/11/30 06:17:42;;;;;;;41.43;26.33;;;10.20;99.90;;;;;;5039313;28;20209;-76
2022/11/30 06:20:08;;;;;;;40.53;27.53;;;10.20;99.90;;;;;;5046639;28;20176;-76
2022/11/30 06:22:34;;;;;;;38.65;26.85;;;10.20;99.90;;;;;;5043808;28;20180;-77
2022/11/30 06:24:59;;;;;;;44.43;27.40;;;10.20;99.90;;;;;;5041461;28;20208;-77
2022/11/30 06:27:30;;;;;;;46.27;30.10;;;10.20;99.90;;;;;;5051229;28;20536;-76
2022/11/30 06:29:56;;;;;;;43.20;28.92;;;10.20;99.90;;;;;;5053496;28;20513;-76
2022/11/30 06:32:21;;;;;;;39.63;28.37;;;10.20;99.90;;;;;;5050812;28;20195;-76
2022/11/30 06:34:47;;;;;;;38.90;25.57;;;10.20;99.90;;;;;;5050803;28;21126;-76
2022/11/30 06:37:13;;;;;;;37.30;26.70;;;10.20;99.90;;;;;;5050921;28;20219;-75
2022/11/30 06:39:39;;;;;;;39.57;24.77;;;10.20;99.90;;;;;;5032877;28;20219;-76
2022/11/30 06:42:04;;;;;;;32.07;21.80;;;10.20;99.90;;;;;;5050784;28;20173;-76
2022/11/30 06:44:30;;;;;;;36.93;24.60;;;10.20;99.90;;;;;;5049408;28;20207;-76
2022/11/30 06:46:56;;;;;;;33.47;22.77;;;10.20;99.90;;;;;;5047763;28;20201;-76
2022/11/30 06:49:24;;;;;;;29.40;21.93;;;10.20;99.90;;;;;;5049590;28;20717;-77
2022/11/30 06:51:49;;;;;;;29.92;19.95;;;10.20;99.90;;;;;;5049110;28;20168;-78
2022/11/30 06:54:15;;;;;;;30.63;21.20;;;10.20;99.90;;;;;;5049707;28;20173;-77
2022/11/30 06:56:41;;;;;;;28.37;21.00;;;10.20;99.90;;;;;;5048146;28;20189;-77
2022/11/30 06:59:07;;;;;;;26.47;20.20;;;10.20;99.90;;;;;;5049322;28;20229;-77
2022/11/30 07:01:33;;;;;;;27.85;20.42;;;10.10;99.90;;;;;;5049228;28;20172;-76
2022/11/30 07:03:59;;;;;;;28.13;20.60;;;10.20;99.90;;;;;;5039042;28;20650;-75
2022/11/30 07:06:24;;;;;;;24.37;17.97;;;10.10;99.90;;;;;;5014734;28;20186;-75
2022/11/30 07:08:50;;;;;;;26.40;20.37;;;10.10;99.90;;;;;;5029779;28;20608;-78
2022/11/30 07:11:16;;;;;;;28.03;20.57;;;10.10;99.90;;;;;;5029416;28;20542;-77
2022/11/30 07:13:42;;;;;;;30.00;20.73;;;10.10;99.90;;;;;;5029900;28;20620;-77
2022/11/30 07:16:10;;;;;;;28.20;20.67;;;10.10;99.90;;;;;;5028205;28;20197;-77
2022/11/30 07:18:36;;;;;;;25.15;19.40;;;10.10;99.90;;;;;;5026730;28;20277;-76
2022/11/30 07:21:04;;;;;;;24.43;18.57;;;10.10;99.90;;;;;;5029122;28;20331;-77
2022/11/30 07:26:14;;;;;;;27.23;20.40;;;10.10;99.90;;;;;;5029189;28;20193;-77
2022/11/30 07:28:49;;;;;;;28.27;19.85;;;10.00;99.90;;;;;;5028714;28;20172;-77
2022/11/30 07:31:22;;;;;;;24.80;17.75;;;10.00;99.90;;;;;;5031179;28;20188;-77
2022/11/30 07:33:49;;;;;;;25.33;18.75;;;10.00;99.90;;;;;;5030317;28;20268;-77
2022/11/30 07:36:17;;;;;;;25.95;17.80;;;10.00;99.90;;;;;;5028910;28;20177;-77
2022/11/30 07:38:44;;;;;;;24.83;18.60;;;10.00;99.90;;;;;;5029017;28;20169;-77
2022/11/30 07:41:10;;;;;;;25.48;18.65;;;9.90;99.90;;;;;;5029680;28;20211;-77
2022/11/30 07:43:37;;;;;;;21.60;17.23;;;9.90;99.90;;;;;;5031493;28;20181;-78
2022/11/30 07:46:03;;;;;;;27.07;18.87;;;9.90;99.90;;;;;;4990672;28;1121095;-76
2022/11/30 07:48:29;;;;;;;22.20;17.30;;;9.90;99.90;;;;;;5029053;28;20188;-77
2022/11/30 07:51:21;;;;;;;24.25;18.38;;;9.80;99.90;;;;;;5029114;28;20227;-77
2022/11/30 07:53:48;;;;;;;21.92;16.52;;;9.80;99.90;;;;;;5029428;28;20224;-78
2022/11/30 07:56:19;;;;;;;21.60;14.68;;;9.80;99.90;;;;;;5029726;28;20189;-77
2022/11/30 07:58:45;;;;;;;17.13;14.50;;;9.80;99.90;;;;;;5027655;28;20538;-77
2022/11/30 08:01:21;;;;;;;21.52;16.17;;;9.80;99.90;;;;;;5028823;28;20169;-76
2022/11/30 08:03:48;;;;;;;17.83;13.95;;;9.80;99.90;;;;;;5027960;28;20230;-76
2022/11/30 08:06:18;;;;;;;23.42;16.67;;;9.80;99.90;;;;;;5032066;28;20193;-76
2022/11/30 08:08:45;;;;;;;19.10;15.85;;;9.80;99.90;;;;;;5030969;28;20189;-77
2022/11/30 08:11:15;;;;;;;20.10;15.85;;;9.80;99.90;;;;;;5028963;28;20169;-77
2022/11/30 08:13:42;;;;;;;21.77;16.83;;;9.90;99.90;;;;;;5027897;28;20202;-76
2022/11/30 08:16:12;;;;;;;20.10;16.50;;;9.90;99.90;;;;;;5029095;28;20190;-77
2022/11/30 08:18:38;;;;;;;23.27;17.00;;;9.90;99.90;;;;;;5028633;28;20176;-77
2022/11/30 08:21:05;;;;;;;27.42;18.25;;;9.90;99.90;;;;;;5031538;28;20688;-77
2022/11/30 08:23:40;;;;;;;22.30;17.65;;;9.90;99.90;;;;;;5029033;28;20169;-77
2022/11/30 08:26:07;;;;;;;21.08;15.32;;;9.90;99.90;;;;;;5027862;28;20216;-77
2022/11/30 08:28:34;;;;;;;24.38;19.00;;;9.90;99.90;;;;;;5026144;28;20925;-77
2022/11/30 08:31:12;;;;;;;25.90;17.83;;;9.90;99.90;;;;;;5025760;28;20252;-76
2022/11/30 08:33:38;;;;;;;22.23;17.35;;;9.90;99.90;;;;;;5031231;28;20254;-77
2022/11/30 08:36:11;;;;;;;18.85;15.32;;;10.00;99.90;;;;;;5029485;28;20672;-75
2022/11/30 08:38:39;;;;;;;20.88;17.48;;;10.00;99.90;;;;;;5027054;28;20173;-76
2022/11/30 08:41:06;;;;;;;22.95;16.77;;;10.00;99.90;;;;;;5028808;28;20209;-75
2022/11/30 08:43:32;;;;;;;24.48;19.75;;;10.00;99.90;;;;;;5011747;28;20178;-76
2022/11/30 08:45:58;;;;;;;19.23;16.13;;;10.00;99.90;;;;;;5027565;28;20212;-75
2022/11/30 08:48:24;;;;;;;22.50;16.90;;;10.00;99.90;;;;;;5027084;28;20193;-76
2022/11/30 08:50:50;;;;;;;20.47;17.50;;;10.00;99.90;;;;;;5029244;28;20208;-74
2022/11/30 08:53:16;;;;;;;19.10;15.30;;;10.00;99.90;;;;;;5028574;28;20733;-75
2022/11/30 08:55:41;;;;;;;26.63;19.53;;;10.00;99.90;;;;;;5029699;28;20718;-75
2022/11/30 08:58:07;;;;;;;23.47;18.13;;;10.00;99.90;;;;;;5031715;28;20687;-75
2022/11/30 09:00:33;;;;;;;21.70;18.20;;;10.00;99.90;;;;;;5027712;28;20162;-76
2022/11/30 09:02:58;;;;;;;24.33;18.93;;;10.00;99.90;;;;;;5027308;28;20208;-75
2022/11/30 09:05:24;;;;;;;22.00;17.00;;;10.00;99.90;;;;;;5028653;28;20205;-75
2022/11/30 09:07:50;;;;;;;21.70;18.37;;;10.00;99.90;;;;;;5027023;28;20236;-76
2022/11/30 09:10:16;;;;;;;22.40;17.57;;;10.00;99.90;;;;;;5027698;28;20177;-76
2022/11/30 09:12:42;;;;;;;28.50;21.92;;;10.00;99.90;;;;;;5023500;28;20210;-76
2022/11/30 09:15:08;;;;;;;22.37;17.10;;;10.00;99.90;;;;;;5028286;28;20208;-76
2022/11/30 09:17:35;;;;;;;25.77;19.00;;;10.00;99.90;;;;;;5028130;28;20166;-76
2022/11/30 09:20:01;;;;;;;26.42;21.08;;;10.00;99.90;;;;;;5028742;28;20578;-76
2022/11/30 09:22:27;;;;;;;25.20;19.83;;;10.00;99.90;;;;;;5028034;28;20285;-77
2022/11/30 09:24:53;;;;;;;25.10;19.53;;;10.00;99.90;;;;;;5028737;28;20260;-77
2022/11/30 09:27:19;;;;;;;24.50;19.30;;;10.00;99.90;;;;;;5010841;28;20585;-77
2022/11/30 09:29:45;;;;;;;22.73;19.02;;;10.00;99.90;;;;;;5028713;28;20260;-76
2022/11/30 09:32:11;;;;;;;22.00;16.55;;;10.00;99.90;;;;;;5027666;28;20204;-76
2022/11/30 09:34:37;;;;;;;21.97;16.70;;;10.00;99.90;;;;;;5032821;28;20162;-77
2022/11/30 09:37:02;;;;;;;19.73;16.20;;;10.10;99.90;;;;;;5028722;28;20181;-76
2022/11/30 09:39:29;;;;;;;22.45;18.77;;;10.10;99.90;;;;;;5028510;28;20855;-77
2022/11/30 09:42:20;;;;;;;25.43;18.23;;;10.10;99.90;;;;;;5031661;28;20172;-77
2022/11/30 09:45:01;;;;;;;21.05;17.10;;;10.10;99.90;;;;;;5032471;28;20158;-76
2022/11/30 09:47:50;;;;;;;26.65;19.30;;;10.10;99.90;;;;;;5029189;28;20182;-76
2022/11/30 09:50:20;;;;;;;25.92;18.92;;;10.10;99.90;;;;;;5026342;28;20196;-76
2022/11/30 09:52:50;;;;;;;20.70;18.33;;;10.10;99.90;;;;;;5033265;28;20216;-76
2022/11/30 09:55:31;;;;;;;24.25;20.10;;;10.10;99.90;;;;;;5032060;28;20276;-76
2022/11/30 09:58:02;;;;;;;28.80;22.30;;;10.10;99.90;;;;;;5032667;28;20170;-76
2022/11/30 10:00:28;;;;;;;27.70;21.60;;;10.20;99.90;;;;;;5031893;28;20846;-77
2022/11/30 10:02:56;;;;;;;29.42;22.40;;;10.20;99.90;;;;;;5032977;28;20170;-76
2022/11/30 10:05:46;;;;;;;25.90;20.48;;;10.20;99.90;;;;;;5031772;28;20204;-75
2022/11/30 10:08:50;;;;;;;32.85;22.52;;;10.20;99.90;;;;;;5032603;28;20250;-76
2022/11/30 10:11:44;;;;;;;26.73;21.02;;;10.20;99.90;;;;;;5036605;28;20574;-75
2022/11/30 10:14:44;;;;;;;26.77;21.52;;;10.20;99.90;;;;;;5032801;28;20235;-76
2022/11/30 10:17:28;;;;;;;26.40;21.05;;;10.20;99.90;;;;;;5032694;28;20926;-76
2022/11/30 10:20:09;;;;;;;26.33;21.40;;;10.20;99.90;;;;;;5031467;28;20173;-77
2022/11/30 10:22:55;;;;;;;26.73;22.02;;;10.20;99.90;;;;;;5033403;28;20205;-76
2022/11/30 10:25:34;;;;;;;27.33;20.20;;;10.20;99.90;;;;;;5036949;28;20279;-76
2022/11/30 10:28:13;;;;;;;22.48;19.35;;;10.10;99.90;;;;;;5034454;28;20184;-77
2022/11/30 10:30:39;;;;;;;26.13;19.55;;;10.20;99.90;;;;;;5035042;28;20174;-76
2022/11/30 10:33:22;;;;;;;30.17;22.43;;;10.20;99.90;;;;;;5034446;28;20723;-76
2022/11/30 10:35:59;;;;;;;30.50;24.60;;;10.20;99.90;;;;;;5032177;28;20189;-75
2022/11/30 10:38:29;;;;;;;32.83;25.17;;;10.10;99.90;;;;;;5032321;28;20176;-75
2022/11/30 10:41:09;;;;;;;30.08;23.55;;;10.10;99.90;;;;;;5031841;28;20282;-75
2022/11/30 10:44:00;;;;;;;28.98;22.15;;;10.10;99.90;;;;;;5032374;28;20181;-75
2022/11/30 10:46:27;;;;;;;28.45;23.92;;;10.10;99.90;;;;;;5024211;28;20667;-77
2022/11/30 10:49:11;;;;;;;31.80;24.95;;;10.10;99.90;;;;;;5035792;28;20177;-77
2022/11/30 10:51:41;;;;;;;30.55;24.35;;;10.10;99.90;;;;;;5032162;28;20182;-76
2022/11/30 10:54:18;;;;;;;26.60;21.40;;;10.10;99.90;;;;;;5031265;28;20573;-76
2022/11/30 10:56:44;;;;;;;33.33;27.13;;;10.10;99.90;;;;;;5032172;28;20185;-75
2022/11/30 10:59:24;;;;;;;29.30;24.20;;;10.20;99.90;;;;;;5030810;28;20189;-76
2022/11/30 11:01:51;;;;;;;31.42;24.20;;;10.10;99.90;;;;;;5034599;28;20192;-76
2022/11/30 11:04:18;;;;;;;30.45;25.15;;;10.20;99.90;;;;;;5032253;28;20260;-77
2022/11/30 11:07:07;;;;;;;30.50;24.73;;;10.20;99.90;;;;;;5032615;28;20186;-78
2022/11/30 11:09:35;;;;;;;35.38;26.13;;;10.20;99.90;;;;;;5030290;28;20252;-76
2022/11/30 11:12:15;;;;;;;31.38;25.42;;;10.20;99.90;;;;;;5035704;28;20257;-77
2022/11/30 11:14:41;;;;;;;35.65;25.30;;;10.20;99.90;;;;;;5029105;28;20180;-77
2022/11/30 11:17:20;;;;;;;34.03;27.00;;;10.20;99.90;;;;;;5018897;28;20298;-75
2022/11/30 11:19:47;;;;;;;39.13;29.92;;;10.30;99.90;;;;;;5039463;28;20207;-76
2022/11/30 11:22:15;;;;;;;35.58;28.95;;;10.30;99.90;;;;;;5033902;28;20173;-76
2022/11/30 11:24:42;;;;;;;29.23;24.65;;;10.30;99.90;;;;;;5031127;28;20178;-77
2022/11/30 11:27:26;;;;;;;36.88;29.48;;;10.20;99.90;;;;;;5029668;28;20182;-76
2022/11/30 11:30:17;;;;;;;36.20;28.40;;;10.20;99.90;;;;;;5032790;28;20228;-77
2022/11/30 11:33:16;;;;;;;33.50;26.25;;;10.20;99.90;;;;;;5018590;28;20685;-77
2022/11/30 11:35:54;;;;;;;29.60;23.58;;;10.20;99.90;;;;;;5035259;28;20243;-77
2022/11/30 11:38:23;;;;;;;36.40;27.23;;;10.20;99.90;;;;;;5030922;28;20205;-76
2022/11/30 11:41:02;;;;;;;35.90;27.42;;;10.20;99.90;;;;;;5031419;28;20518;-77
2022/11/30 11:43:31;;;;;;;37.40;27.95;;;10.20;99.90;;;;;;5031257;28;20170;-77
2022/11/30 11:46:01;;;;;;;32.88;27.50;;;10.20;99.90;;;;;;5032703;28;20246;-77
2022/11/30 11:48:34;;;;;;;34.22;28.65;;;10.20;99.90;;;;;;5031137;28;20538;-78
2022/11/30 11:51:06;;;;;;;41.28;30.33;;;10.20;99.90;;;;;;5028558;28;20217;-78
2022/11/30 11:53:50;;;;;;;34.70;27.98;;;10.20;99.90;;;;;;5016111;28;20326;-78
2022/11/30 11:56:22;;;;;;;34.80;27.15;;;10.20;99.90;;;;;;5038125;28;20564;-79
2022/11/30 11:59:16;;;;;;;39.15;30.20;;;10.20;99.90;;;;;;5040095;28;20178;-78
2022/11/30 12:01:57;;;;;;;36.28;29.00;;;10.20;99.90;;;;;;5031709;28;20216;-78
2022/11/30 12:04:41;;;;;;;39.38;30.45;;;10.20;99.90;;;;;;5032496;28;20161;-77
2022/11/30 12:07:21;;;;;;;34.13;25.48;;;10.20;99.90;;;;;;5030399;28;20173;-77
2022/11/30 12:10:17;;;;;;;33.70;26.67;;;10.20;99.90;;;;;;5031466;28;20169;-78
2022/11/30 12:12:43;;;;;;;33.85;26.27;;;10.20;99.90;;;;;;5033692;28;20223;-78
2022/11/30 12:15:13;;;;;;;39.07;29.67;;;10.20;99.90;;;;;;5031942;28;20269;-77
2022/11/30 12:17:52;;;;;;;46.15;32.22;;;10.20;99.90;;;;;;5029182;28;20162;-77
2022/11/30 12:20:39;;;;;;;36.40;29.52;;;10.20;99.90;;;;;;5031013;28;20189;-79
2022/11/30 12:23:33;;;;;;;44.13;32.80;;;10.30;99.90;;;;;;5028680;28;20263;-78
2022/11/30 12:26:32;;;;;;;41.05;31.85;;;10.20;99.90;;;;;;5030646;28;20189;-78
2022/11/30 12:29:16;;;;;;;44.67;32.97;;;10.20;99.90;;;;;;5030052;28;20177;-77
2022/11/30 12:31:59;;;;;;;43.38;31.45;;;10.20;99.90;;;;;;5030568;28;20177;-78
2022/11/30 12:34:55;;;;;;;39.88;30.08;;;10.20;99.90;;;;;;5030355;28;20177;-76
2022/11/30 12:37:41;;;;;;;49.08;32.08;;;10.20;99.90;;;;;;5029843;28;20193;-76
2022/11/30 12:40:22;;;;;;;46.47;34.08;;;10.20;99.90;;;;;;5033632;28;20672;-76
2022/11/30 12:43:03;;;;;;;41.90;30.83;;;10.20;99.90;;;;;;5029273;28;20518;-76
2022/11/30 12:45:37;;;;;;;42.03;31.02;;;10.20;99.90;;;;;;5029742;28;20201;-76
2022/11/30 12:48:21;;;;;;;39.85;32.20;;;10.20;99.90;;;;;;5029997;28;20196;-75